This is the latest recevied weather packets stored in our database for station/object IW1AXR-3. If no packets are shown the sender has not sent any weather packets the latest 10 day(s).
| Time | Temp. | Humidity | Pressure | Rain* | Wind** | Luminosity | Snow |
|---|---|---|---|---|---|---|---|
| 1777320836 | 15.56° C | 73% | 1014.6 hPa | - | - | - | - |
| 1777317954 | 15.56° C | 79% | 1014.6 hPa | - | - | - | - |
| 1777317348 | 15.56° C | 76% | 1014.5 hPa | - | - | - | - |
| 1777316731 | 16.11° C | 74% | 1014.4 hPa | - | - | - | - |
| 1777314907 | 16.11° C | 77% | 1014.2 hPa | - | - | - | - |
| 1777309408 | 18.89° C | 64% | 1013.8 hPa | - | - | - | - |
| 1777303314 | 21.67° C | 54% | 1013.9 hPa | - | - | - | - |
| 1777302092 | 21.11° C | 55% | 1014 hPa | - | - | - | - |
| 1777297239 | 23.89° C | 39% | 1014.8 hPa | - | - | - | - |
| 1777296632 | 25° C | 37% | 1014.9 hPa | - | - | - | - |
| 1777294211 | 23.33° C | 40% | 1015.6 hPa | - | - | - | - |
| 1777293606 | 23.33° C | 42% | 1015.7 hPa | - | - | - | - |
| 1777292088 | 25.56° C | 42% | 1016 hPa | - | - | - | - |
| 1777291792 | 25.56° C | 42% | 1016 hPa | - | - | - | - |
| 1777291188 | 24.44° C | 44% | 1016.1 hPa | - | - | - | - |
| 1777289978 | 23.89° C | 45% | 1016.3 hPa | - | - | - | - |
| 1777289374 | 23.33° C | 43% | 1016.4 hPa | - | - | - | - |
| 1777288197 | 22.22° C | 46% | 1016.6 hPa | - | - | - | - |
| 1777288166 | 22.22° C | 46% | 1016.6 hPa | - | - | - | - |
| 1777287562 | 24.44° C | 46% | 1016.7 hPa | - | - | - | - |
| 1777286353 | 22.78° C | 50% | 1016.9 hPa | - | - | - | - |
| 1777285749 | 21.67° C | 50% | 1016.9 hPa | - | - | - | - |
| 1777284540 | 22.78° C | 50% | 1017.1 hPa | - | - | - | - |
| 1777283936 | 21.11° C | 53% | 1017.1 hPa | - | - | - | - |
| 1777283331 | 20.56° C | 55% | 1017.1 hPa | - | - | - | - |
* Rain since midnight (hover to see other rain measurements)
** Current wind speed in m/s (hover to see current wind gust speed)